Time;durP1;ratioP1;P1;durP2;ratioP2;P2;SDS_P1;SDS_P2;PMS_P1;PMS_P2;Temp;Humidity;BMP_temperature;BMP_pressure;BME280_temperature;BME280_humidity;BME280_pressure;Samples;Min_cycle;Max_cycle;Signal;HPM_P1;HPM_P2
2022/04/06 00:00:46;;;;;;;;;;;;;;;14.39;52.68;99366.19;4942991;28;99218;-61
2022/04/06 00:03:12;;;;;;;;;;;;;;;14.38;52.94;99361.88;4941180;28;119750;-61
2022/04/06 00:05:38;;;;;;;;;;;;;;;14.40;52.73;99366.97;4942063;28;97842;-61
2022/04/06 00:08:04;;;;;;;;;;;;;;;14.40;52.73;99361.56;4948916;28;128427;-61
2022/04/06 00:10:31;;;;;;;;;;;;;;;14.40;52.93;99358.84;4941502;28;126119;-62
2022/04/06 00:12:57;;;;;;;;;;;;;;;14.40;52.77;99365.06;4942207;28;98689;-61
2022/04/06 00:15:23;;;;;;;;;;;;;;;14.40;52.99;99372.41;4942511;28;98438;-62
2022/04/06 00:17:49;;;;;;;;;;;;;;;14.40;52.91;99358.84;4942033;28;98153;-62
2022/04/06 00:20:15;;;;;;;;;;;;;;;14.41;52.86;99355.00;4938799;28;127959;-61
2022/04/06 00:22:41;;;;;;;;;;;;;;;14.41;52.84;99360.44;4939295;28;126950;-61
2022/04/06 00:25:07;;;;;;;;;;;;;;;14.40;52.84;99354.22;4942318;28;99445;-61
2022/04/06 00:27:33;;;;;;;;;;;;;;;14.41;52.82;99363.16;4941058;28;117114;-61
2022/04/06 00:29:59;;;;;;;;;;;;;;;14.41;53.15;99366.66;4940955;28;113694;-61
2022/04/06 00:32:25;;;;;;;;;;;;;;;14.40;53.00;99359.66;4941246;28;113126;-61
2022/04/06 00:37:36;;;;;;;;;;;;;;;14.40;53.20;99364.28;4941393;28;98351;-61
2022/04/06 00:40:02;;;;;;;;;;;;;;;14.40;53.29;99356.94;4942099;28;99272;-61
2022/04/06 00:42:28;;;;;;;;;;;;;;;14.40;53.06;99362.34;4941299;28;98592;-61
2022/04/06 00:44:54;;;;;;;;;;;;;;;14.40;52.94;99356.13;4940798;28;116985;-61
2022/04/06 00:47:20;;;;;;;;;;;;;;;14.40;52.86;99354.22;4941465;28;125137;-61
2022/04/06 00:49:46;;;;;;;;;;;;;;;14.40;52.90;99356.13;4941378;28;126701;-61
2022/04/06 00:52:12;;;;;;;;;;;;;;;14.40;53.09;99351.50;4939220;28;102829;-61
2022/04/06 00:54:38;;;;;;;;;;;;;;;14.40;53.39;99343.38;4938821;28;116755;-61
2022/04/06 00:57:04;;;;;;;;;;;;;;;14.41;53.21;99350.38;4941695;28;98886;-61
2022/04/06 00:59:30;;;;;;;;;;;;;;;14.40;53.39;99343.38;4941237;28;126096;-62
2022/04/06 01:01:56;;;;;;;;;;;;;;;14.40;53.34;99354.22;4941372;28;98674;-61
2022/04/06 01:04:22;;;;;;;;;;;;;;;14.41;53.33;99341.47;4942190;28;97977;-61
2022/04/06 01:06:49;;;;;;;;;;;;;;;14.41;53.21;99342.25;4940191;28;128899;-61
2022/04/06 01:09:18;;;;;;;;;;;;;;;14.41;53.41;99344.97;4941417;28;99458;-61
2022/04/06 01:11:48;;;;;;;;;;;;;;;14.41;53.42;99339.53;4942190;28;98308;-61
2022/04/06 01:14:14;;;;;;;;;;;;;;;14.41;53.42;99350.38;4955405;28;114959;-61
2022/04/06 01:16:40;;;;;;;;;;;;;;;14.42;53.28;99335.75;4941207;28;127760;-61
2022/04/06 01:19:06;;;;;;;;;;;;;;;14.43;53.06;99339.25;4941363;28;116644;-64
2022/04/06 01:21:32;;;;;;;;;;;;;;;14.43;53.14;99340.03;4940829;28;104835;-61
2022/04/06 01:23:58;;;;;;;;;;;;;;;14.43;53.08;99334.63;4941167;28;116872;-61
2022/04/06 01:26:24;;;;;;;;;;;;;;;14.44;53.31;99340.81;4941687;28;99090;-61
2022/04/06 01:28:50;;;;;;;;;;;;;;;14.45;53.01;99337.00;4941059;28;119342;-61
2022/04/06 01:31:16;;;;;;;;;;;;;;;14.45;53.31;99342.41;4940589;28;127924;-61
2022/04/06 01:33:42;;;;;;;;;;;;;;;14.44;53.48;99332.69;4940241;28;117746;-61
2022/04/06 01:36:08;;;;;;;;;;;;;;;14.45;53.43;99337.00;4939864;28;128073;-61
2022/04/06 01:38:34;;;;;;;;;;;;;;;14.44;53.56;99336.19;4942107;28;98978;-61
2022/04/06 01:41:02;;;;;;;;;;;;;;;14.44;53.41;99330.78;4940690;28;108933;-61
2022/04/06 01:43:28;;;;;;;;;;;;;;;14.44;53.33;99338.13;4939588;28;116829;-61
2022/04/06 01:45:54;;;;;;;;;;;;;;;14.44;53.59;99333.50;4940011;28;128441;-61
2022/04/06 01:48:20;;;;;;;;;;;;;;;14.44;53.21;99338.91;4940675;28;99222;-61
2022/04/06 01:53:31;;;;;;;;;;;;;;;14.43;53.21;99334.63;4938346;28;97866;-61
2022/04/06 01:55:57;;;;;;;;;;;;;;;14.44;53.17;99343.53;4954663;28;111620;-61
2022/04/06 01:58:23;;;;;;;;;;;;;;;14.42;53.64;99343.88;4940568;28;98675;-61
2022/04/06 02:00:49;;;;;;;;;;;;;;;14.42;53.40;99346.59;4939633;28;126638;-61
2022/04/06 02:03:15;;;;;;;;;;;;;;;14.42;53.26;99341.16;4939885;28;114976;-61
2022/04/06 02:05:41;;;;;;;;;;;;;;;14.43;53.34;99347.38;4939760;28;128753;-62
2022/04/06 02:08:07;;;;;;;;;;;;;;;14.42;53.27;99338.44;4939111;28;127668;-61
2022/04/06 02:10:33;;;;;;;;;;;;;;;14.43;53.66;99339.25;4940309;28;105995;-61
2022/04/06 02:13:00;;;;;;;;;;;;;;;14.42;53.65;99337.63;4939746;28;117550;-61
2022/04/06 02:15:30;;;;;;;;;;;;;;;14.41;53.29;99336.84;4940107;28;98428;-61
2022/04/06 02:17:55;;;;;;;;;;;;;;;14.41;53.73;99336.03;4940716;28;98649;-62
2022/04/06 02:20:21;;;;;;;;;;;;;;;14.42;53.36;99329.50;4939027;28;128046;-62
2022/04/06 02:22:48;;;;;;;;;;;;;;;14.42;53.42;99326.78;4940787;28;97880;-62
2022/04/06 02:25:13;;;;;;;;;;;;;;;14.40;53.77;99320.91;4940253;28;101690;-63
2022/04/06 02:27:53;;;;;;;;;;;;;;;14.40;53.44;99320.91;4939678;28;127430;-62
2022/04/06 02:30:19;;;;;;;;;;;;;;;14.40;53.54;99326.31;4940630;28;98169;-62
2022/04/06 02:32:45;;;;;;;;;;;;;;;14.40;53.67;99323.59;4938828;28;106876;-62
2022/04/06 02:35:11;;;;;;;;;;;;;;;14.39;53.76;99325.53;4939191;28;128639;-62
2022/04/06 02:37:39;;;;;;;;;;;;;;;14.40;53.81;99326.31;4940065;28;104561;-62
2022/04/06 02:40:05;;;;;;;;;;;;;;;14.39;53.87;99317.41;4940292;28;98323;-62
2022/04/06 02:42:31;;;;;;;;;;;;;;;14.39;53.65;99325.53;4937708;28;116283;-62
2022/04/06 02:44:57;;;;;;;;;;;;;;;14.39;53.75;99316.59;4940091;28;128005;-62
2022/04/06 02:47:23;;;;;;;;;;;;;;;14.38;53.94;99320.41;4939159;28;127827;-62
2022/04/06 02:49:49;;;;;;;;;;;;;;;14.38;53.85;99309.56;4939355;28;127128;-62
2022/04/06 02:52:15;;;;;;;;;;;;;;;14.38;53.62;99312.28;4936695;28;115635;-62
2022/04/06 02:54:41;;;;;;;;;;;;;;;14.37;53.89;99319.63;4939228;28;128709;-62
2022/04/06 02:57:07;;;;;;;;;;;;;;;14.37;53.76;99310.69;4938618;28;127001;-62
2022/04/06 02:59:33;;;;;;;;;;;;;;;14.36;53.88;99315.31;4955039;28;98581;-62
2022/04/06 03:01:58;;;;;;;;;;;;;;;14.37;53.87;99305.25;4939717;28;118025;-62
2022/04/06 03:04:24;;;;;;;;;;;;;;;14.36;53.80;99315.31;4939362;28;127271;-62
2022/04/06 03:06:50;;;;;;;;;;;;;;;14.35;53.70;99308.31;4938724;28;127691;-62
2022/04/06 03:09:16;;;;;;;;;;;;;;;14.36;54.09;99315.31;4947363;28;128871;-60
2022/04/06 03:11:43;;;;;;;;;;;;;;;14.35;53.57;99321.88;4939686;28;116763;-62
2022/04/06 03:14:09;;;;;;;;;;;;;;;14.35;53.41;99326.50;4940426;28;98478;-62
2022/04/06 03:16:35;;;;;;;;;;;;;;;14.36;53.68;99309.09;4940040;28;97868;-62
2022/04/06 03:19:01;;;;;;;;;;;;;;;14.35;53.94;99321.88;4939355;28;128070;-62
2022/04/06 03:21:27;;;;;;;;;;;;;;;14.35;53.77;99327.28;4939004;28;117260;-62
2022/04/06 03:23:53;;;;;;;;;;;;;;;14.35;53.65;99327.28;4953637;28;98341;-62
2022/04/06 03:26:19;;;;;;;;;;;;;;;14.35;53.58;99323.78;4939784;28;121038;-62
2022/04/06 03:28:45;;;;;;;;;;;;;;;14.35;54.08;99321.88;4941795;28;128382;-62
2022/04/06 03:31:10;;;;;;;;;;;;;;;14.34;53.63;99306.69;4942617;28;117905;-62
2022/04/06 03:33:36;;;;;;;;;;;;;;;14.34;54.05;99316.75;4941414;28;128229;-62
2022/04/06 03:36:03;;;;;;;;;;;;;;;14.35;54.02;99312.94;4942128;28;120390;-62
2022/04/06 03:38:29;;;;;;;;;;;;;;;14.33;53.89;99304.31;4943203;28;98376;-61
2022/04/06 03:40:55;;;;;;;;;;;;;;;14.34;54.16;99314.03;4942057;28;116736;-62
2022/04/06 03:43:22;;;;;;;;;;;;;;;14.34;53.73;99314.03;4942294;28;118111;-62
2022/04/06 03:45:48;;;;;;;;;;;;;;;14.34;53.86;99316.75;4942588;28;98101;-61
2022/04/06 03:48:14;;;;;;;;;;;;;;;14.34;54.09;99316.75;4942341;28;97836;-62
2022/04/06 03:50:40;;;;;;;;;;;;;;;14.33;54.10;99310.53;4942522;28;97770;-62
2022/04/06 03:53:06;;;;;;;;;;;;;;;14.32;53.73;99300.00;4941551;28;128488;-62
2022/04/06 03:55:31;;;;;;;;;;;;;;;14.33;53.95;99315.16;4941308;28;128057;-62
2022/04/06 03:57:57;;;;;;;;;;;;;;;14.33;53.97;99301.59;4941438;28;128779;-62
2022/04/06 04:00:23;;;;;;;;;;;;;;;14.33;53.90;99315.94;4941613;28;117302;-62
2022/04/06 04:02:49;;;;;;;;;;;;;;;14.33;54.04;99320.56;4957267;28;106750;-62
2022/04/06 04:05:15;;;;;;;;;;;;;;;14.32;54.21;99333.34;4942434;28;125501;-62
2022/04/06 04:07:43;;;;;;;;;;;;;;;14.31;53.97;99337.16;4948294;28;98334;-62
2022/04/06 04:10:09;;;;;;;;;;;;;;;14.33;54.24;99329.50;4943023;28;117904;-62
2022/04/06 04:12:35;;;;;;;;;;;;;;;14.32;53.90;99327.91;4942264;28;114644;-62
2022/04/06 04:15:01;;;;;;;;;;;;;;;14.32;53.93;99327.13;4941146;28;128157;-62
2022/04/06 04:17:27;;;;;;;;;;;;;;;14.32;53.95;99327.13;4941477;28;123963;-62
2022/04/06 04:19:53;;;;;;;;;;;;;;;14.32;54.08;99324.41;4941866;28;115374;-62
2022/04/06 04:22:19;;;;;;;;;;;;;;;14.33;54.25;99342.25;4940605;28;129453;-62
2022/04/06 04:24:45;;;;;;;;;;;;;;;14.32;54.26;99346.09;4941046;28;127474;-62
2022/04/06 04:27:11;;;;;;;;;;;;;;;14.32;54.05;99346.09;4941885;28;124625;-62
2022/04/06 04:29:37;;;;;;;;;;;;;;;14.33;53.95;99342.25;4942641;28;97802;-62
2022/04/06 04:32:03;;;;;;;;;;;;;;;14.33;54.21;99344.97;4941215;28;127206;-62
2022/04/06 04:34:29;;;;;;;;;;;;;;;14.34;54.22;99349.28;4940142;28;124269;-61
2022/04/06 04:36:55;;;;;;;;;;;;;;;14.33;54.25;99334.13;4941307;28;127720;-61
2022/04/06 04:39:21;;;;;;;;;;;;;;;14.33;54.01;99340.34;4927700;28;98483;-61
2022/04/06 04:41:47;;;;;;;;;;;;;;;14.34;54.16;99341.94;4931708;28;126119;-62
2022/04/06 04:44:13;;;;;;;;;;;;;;;14.36;54.07;99341.63;4942076;28;116565;-62
2022/04/06 04:46:39;;;;;;;;;;;;;;;14.36;53.90;99336.22;4941901;28;115755;-61
2022/04/06 04:49:05;;;;;;;;;;;;;;;14.36;54.01;99349.75;4942620;28;97571;-61
2022/04/06 04:51:31;;;;;;;;;;;;;;;14.38;54.24;99344.81;4938306;28;127406;-62
2022/04/06 04:53:58;;;;;;;;;;;;;;;14.39;54.08;99354.56;4939469;28;127973;-61
2022/04/06 04:56:25;;;;;;;;;;;;;;;14.39;53.84;99346.41;4956109;28;98546;-61
2022/04/06 04:58:51;;;;;;;;;;;;;;;14.39;54.20;99355.34;4941473;28;97741;-61
2022/04/06 05:01:17;;;;;;;;;;;;;;;14.40;54.21;99354.22;4941644;28;97885;-61
2022/04/06 05:03:43;;;;;;;;;;;;;;;14.41;54.22;99363.16;4941802;28;104696;-62
2022/04/06 05:06:09;;;;;;;;;;;;;;;14.43;54.27;99358.22;4941567;28;123852;-61
2022/04/06 05:08:35;;;;;;;;;;;;;;;14.44;54.24;99367.94;4949808;28;116682;-61
2022/04/06 05:11:01;;;;;;;;;;;;;;;14.44;53.96;99365.22;4940836;28;127699;-61
2022/04/06 05:13:27;;;;;;;;;;;;;;;14.45;54.08;99364.91;4939172;28;128606;-61
2022/04/06 05:15:53;;;;;;;;;;;;;;;14.45;54.13;99362.19;4939430;28;99118;-61
2022/04/06 05:18:19;;;;;;;;;;;;;;;14.45;53.87;99364.91;4940742;28;97662;-62
2022/04/06 05:20:45;;;;;;;;;;;;;;;14.49;53.99;99355.03;4940240;28;117472;-61
2022/04/06 05:23:11;;;;;;;;;;;;;;;14.54;53.80;99353.28;4940055;28;128281;-61
2022/04/06 05:25:37;;;;;;;;;;;;;;;14.54;54.16;99366.84;4941575;28;98408;-61
2022/04/06 05:28:03;;;;;;;;;;;;;;;14.52;54.10;99359.03;4940952;28;116644;-62
2022/04/06 05:30:30;;;;;;;;;;;;;;;14.53;53.88;99360.63;4940315;28;118345;-61
2022/04/06 05:32:56;;;;;;;;;;;;;;;14.55;54.10;99376.59;4939607;28;99415;-61
2022/04/06 05:35:24;;;;;;;;;;;;;;;14.56;53.82;99367.34;4940693;28;128325;-62
2022/04/06 05:37:50;;;;;;;;;;;;;;;14.56;54.21;99365.41;4941263;28;97829;-61
2022/04/06 05:40:16;;;;;;;;;;;;;;;14.58;53.80;99370.50;4940981;28;118013;-61
2022/04/06 05:42:42;;;;;;;;;;;;;;;14.60;53.74;99363.66;4940904;28;122560;-61
2022/04/06 05:45:08;;;;;;;;;;;;;;;14.62;54.09;99374.16;4940572;28;128580;-61
2022/04/06 05:47:35;;;;;;;;;;;;;;;14.66;53.73;99375.94;4940853;28;97911;-61
2022/04/06 05:50:01;;;;;;;;;;;;;;;14.73;53.73;99381.66;4939911;28;125080;-62
2022/04/06 05:52:27;;;;;;;;;;;;;;;14.80;53.67;99385.81;4941155;28;98421;-62
2022/04/06 05:54:52;;;;;;;;;;;;;;;14.82;53.75;99387.09;4940254;28;98452;-62
2022/04/06 05:57:19;;;;;;;;;;;;;;;14.83;53.71;99383.25;4940716;28;115948;-61
2022/04/06 05:59:45;;;;;;;;;;;;;;;14.85;53.77;99381.00;4938570;28;98138;-61
2022/04/06 06:02:11;;;;;;;;;;;;;;;14.88;53.86;99390.44;4939226;28;98446;-61
2022/04/06 06:04:38;;;;;;;;;;;;;;;14.89;53.54;99392.81;4955158;28;122491;-62
2022/04/06 06:07:05;;;;;;;;;;;;;;;14.91;53.80;99393.28;4943237;28;97722;-62
2022/04/06 06:09:31;;;;;;;;;;;;;;;14.91;53.50;99395.22;4946769;28;98641;-62
2022/04/06 06:11:58;;;;;;;;;;;;;;;14.93;53.64;99398.38;4939407;28;120706;-61
2022/04/06 06:14:24;;;;;;;;;;;;;;;15.01;53.85;99394.88;4940053;28;98297;-61
2022/04/06 06:16:49;;;;;;;;;;;;;;;15.08;53.46;99399.81;4940190;28;116832;-61
2022/04/06 06:19:16;;;;;;;;;;;;;;;15.13;53.66;99395.03;4940611;28;128218;-61
2022/04/06 06:21:42;;;;;;;;;;;;;;;15.23;53.58;99396.56;4940648;28;99819;-61
2022/04/06 06:24:08;;;;;;;;;;;;;;;15.35;53.17;99387.75;4940327;28;125561;-62
2022/04/06 06:26:34;;;;;;;;;;;;;;;15.49;53.31;99391.06;4941311;28;97897;-62
2022/04/06 06:29:00;;;;;;;;;;;;;;;15.59;52.86;99382.53;4939985;28;107543;-62
2022/04/06 06:31:28;;;;;;;;;;;;;;;15.76;52.82;99383.63;4940568;28;98958;-62
2022/04/06 06:33:54;;;;;;;;;;;;;;;15.91;52.70;99380.34;4940239;28;97803;-62
2022/04/06 06:36:20;;;;;;;;;;;;;;;16.03;52.63;99383.13;4939593;28;112821;-62
2022/04/06 06:38:46;;;;;;;;;;;;;;;16.11;52.61;99379.59;4933734;28;125948;-61
2022/04/06 06:41:12;;;;;;;;;;;;;;;16.14;52.66;99378.91;4921187;28;98505;-62
2022/04/06 06:43:38;;;;;;;;;;;;;;;16.18;52.49;99384.47;4935898;28;128005;-62
2022/04/06 06:46:03;;;;;;;;;;;;;;;16.25;52.36;99390.19;4939829;28;116727;-62
2022/04/06 06:48:29;;;;;;;;;;;;;;;16.30;52.54;99390.00;4940199;28;128016;-62
2022/04/06 06:50:55;;;;;;;;;;;;;;;16.35;52.66;99392.53;4939091;28;128147;-61
2022/04/06 06:53:21;;;;;;;;;;;;;;;16.44;52.44;99389.75;4939985;28;125762;-62
2022/04/06 06:55:47;;;;;;;;;;;;;;;16.51;52.42;99390.00;4939430;28;116247;-62
2022/04/06 06:58:13;;;;;;;;;;;;;;;16.63;52.47;99392.78;4939239;28;128043;-62
2022/04/06 07:00:39;;;;;;;;;;;;;;;16.79;52.27;99384.84;4938947;28;128540;-62
2022/04/06 07:03:05;;;;;;;;;;;;;;;16.98;51.90;99386.25;4940173;28;118900;-62
2022/04/06 07:05:31;;;;;;;;;;;;;;;17.20;51.56;99387.78;4943003;28;116483;-61
2022/04/06 07:07:58;;;;;;;;;;;;;;;17.39;51.60;99383.38;4965405;28;128038;-62
2022/04/06 07:10:25;;;;;;;;;;;;;;;17.64;51.13;99376.06;4963591;28;98252;-61
2022/04/06 07:12:51;;;;;;;;;;;;;;;17.86;50.99;99380.25;4960895;28;102336;-62
2022/04/06 07:15:17;;;;;;;;;;;;;;;18.06;50.92;99385.94;4941832;28;97790;-61
2022/04/06 07:17:43;;;;;;;;;;;;;;;18.32;50.56;99380.88;4943357;28;99947;-62
2022/04/06 07:20:10;;;;;;;;;;;;;;;18.53;50.63;99388.09;4942526;28;127906;-62
2022/04/06 07:22:36;;;;;;;;;;;;;;;18.75;50.35;99387.59;4942885;28;98030;-62
2022/04/06 07:25:02;;;;;;;;;;;;;;;18.79;50.61;99379.50;4942825;28;115347;-62
2022/04/06 07:27:34;;;;;;;;;;;;;;;18.74;50.80;99387.91;4943045;28;107051;-62
2022/04/06 07:30:00;;;;;;;;;;;;;;;18.68;50.91;99381.09;4943167;28;99848;-62
2022/04/06 07:32:28;;;;;;;;;;;;;;;18.61;51.23;99378.97;4942112;28;128424;-61
2022/04/06 07:34:54;;;;;;;;;;;;;;;18.49;51.50;99389.91;4943768;28;97868;-62
2022/04/06 07:37:20;;;;;;;;;;;;;;;18.33;51.31;99381.66;4940704;28;128925;-62
2022/04/06 07:39:46;;;;;;;;;;;;;;;18.20;51.53;99385.56;4942851;28;113527;-62
2022/04/06 07:42:12;;;;;;;;;;;;;;;18.08;51.71;99380.94;4942384;28;127278;-62
2022/04/06 07:44:38;;;;;;;;;;;;;;;17.98;51.88;99389.56;4942321;28;116949;-62
2022/04/06 07:47:03;;;;;;;;;;;;;;;17.88;51.97;99388.91;4956719;28;126762;-62
2022/04/06 07:49:29;;;;;;;;;;;;;;;17.79;52.21;99380.03;4941448;28;104218;-62
2022/04/06 07:51:55;;;;;;;;;;;;;;;17.73;52.22;99383.31;4937889;28;128227;-62
2022/04/06 07:54:21;;;;;;;;;;;;;;;17.64;52.28;99377.94;4943189;28;97801;-62
2022/04/06 07:56:47;;;;;;;;;;;;;;;17.59;52.35;99378.97;4941615;28;128216;-62
2022/04/06 07:59:13;;;;;;;;;;;;;;;17.54;52.24;99376.50;4941604;28;127184;-62
2022/04/06 08:01:39;;;;;;;;;;;;;;;17.50;52.37;99383.75;4941620;28;126848;-62
2022/04/06 08:04:05;;;;;;;;;;;;;;;17.45;52.34;99373.09;4942403;28;117493;-62
2022/04/06 08:06:31;;;;;;;;;;;;;;;17.40;52.46;99381.47;4941646;28;128848;-62
2022/04/06 08:08:57;;;;;;;;;;;;;;;17.36;52.36;99386.00;4949836;28;127675;-62
2022/04/06 08:11:23;;;;;;;;;;;;;;;17.34;52.42;99380.09;4942883;28;97803;-62
2022/04/06 08:13:49;;;;;;;;;;;;;;;17.31;52.51;99380.78;4938840;28;115398;-62
2022/04/06 08:16:15;;;;;;;;;;;;;;;17.30;52.34;99381.91;4941287;28;128127;-62
2022/04/06 08:18:41;;;;;;;;;;;;;;;17.29;52.28;99378.41;4940870;28;98425;-62
2022/04/06 08:21:07;;;;;;;;;;;;;;;17.30;52.45;99379.19;4955883;28;127156;-62
2022/04/06 08:23:33;;;;;;;;;;;;;;;17.30;52.38;99376.47;4942841;28;97787;-62
2022/04/06 08:25:59;;;;;;;;;;;;;;;17.31;52.23;99384.28;4941097;28;127295;-61
2022/04/06 08:28:25;;;;;;;;;;;;;;;17.30;52.51;99388.16;4942443;28;98475;-62
2022/04/06 08:30:51;;;;;;;;;;;;;;;17.31;52.18;99378.84;4941237;28;108050;-62
2022/04/06 08:33:17;;;;;;;;;;;;;;;17.33;52.36;99382.03;4941901;28;115409;-62
2022/04/06 08:35:43;;;;;;;;;;;;;;;17.37;52.15;99385.69;4941000;28;128303;-62
2022/04/06 08:38:15;;;;;;;;;;;;;;;17.40;52.21;99384.19;4941892;28;98616;-62
2022/04/06 08:40:42;;;;;;;;;;;;;;;17.45;52.20;99381.25;4942176;28;97930;-62
2022/04/06 08:43:09;;;;;;;;;;;;;;;17.48;52.13;99380.56;4957128;28;97844;-62
2022/04/06 08:45:38;;;;;;;;;;;;;;;17.49;52.12;99382.16;4941867;28;99202;-62
2022/04/06 08:48:05;;;;;;;;;;;;;;;17.52;52.16;99378.75;4956007;28;99006;-62
2022/04/06 08:50:32;;;;;;;;;;;;;;;17.55;52.00;99380.78;4956242;28;126999;-62
2022/04/06 08:52:58;;;;;;;;;;;;;;;17.55;52.15;99388.97;4956658;28;98131;-62
2022/04/06 08:55:24;;;;;;;;;;;;;;;17.55;52.04;99391.69;4940836;28;127563;-63
2022/04/06 08:57:50;;;;;;;;;;;;;;;17.56;52.25;99392.47;4941164;28;128314;-63
2022/04/06 09:00:18;;;;;;;;;;;;;;;17.58;52.12;99392.94;4942308;28;98109;-62
2022/04/06 09:02:44;;;;;;;;;;;;;;;17.63;51.92;99384.53;4942828;28;98353;-62
2022/04/06 09:05:11;;;;;;;;;;;;;;;17.72;51.90;99382.50;4941484;28;120914;-62
2022/04/06 09:07:38;;;;;;;;;;;;;;;17.78;51.88;99381.19;4941505;28;98791;-61
2022/04/06 09:10:04;;;;;;;;;;;;;;;17.85;51.78;99386.06;4941184;28;126209;-62
2022/04/06 09:12:30;;;;;;;;;;;;;;;17.98;51.68;99384.13;4940694;28;116816;-63
2022/04/06 09:15:07;;;;;;;;;;;;;;;18.06;51.63;99384.00;4940344;28;129087;-63
2022/04/06 09:17:53;;;;;;;;;;;;;;;18.13;51.34;99384.22;4941107;28;98703;-62
2022/04/06 09:20:23;;;;;;;;;;;;;;;18.24;51.30;99381.03;4955018;28;98634;-62
2022/04/06 09:22:49;;;;;;;;;;;;;;;18.28;51.34;99377.25;4955934;28;115047;-62
2022/04/06 09:25:16;;;;;;;;;;;;;;;18.35;51.41;99379.38;4939361;28;129059;-62
2022/04/06 09:27:42;;;;;;;;;;;;;;;18.45;51.02;99370.72;4941078;28;97977;-62
2022/04/06 09:30:09;;;;;;;;;;;;;;;18.53;51.20;99374.44;4940944;28;127856;-63
2022/04/06 09:32:34;;;;;;;;;;;;;;;18.57;51.12;99370.69;4941346;28;98088;-62
2022/04/06 09:35:00;;;;;;;;;;;;;;;18.63;51.15;99361.13;4940904;28;114227;-62
2022/04/06 09:37:27;;;;;;;;;;;;;;;18.79;50.82;99360.41;4937924;28;128071;-63
2022/04/06 09:39:53;;;;;;;;;;;;;;;18.89;50.66;99344.28;4940487;28;97914;-63
2022/04/06 09:42:20;;;;;;;;;;;;;;;19.07;50.51;99355.69;4941478;28;97957;-62
2022/04/06 09:47:51;;;;;;;;;;;;;;;19.31;50.46;99353.94;4940611;28;98093;-62
2022/04/06 09:50:19;;;;;;;;;;;;;;;19.42;50.32;99351.47;4941349;28;98475;-62
2022/04/06 09:52:46;;;;;;;;;;;;;;;19.51;50.17;99352.09;4941583;28;97851;-62
2022/04/06 09:55:14;;;;;;;;;;;;;;;19.62;50.27;99350.44;4941217;28;98998;-62
2022/04/06 09:57:51;;;;;;;;;;;;;;;19.74;50.00;99349.53;4940861;28;98540;-62
2022/04/06 10:00:19;;;;;;;;;;;;;;;19.97;49.72;99344.22;4941146;28;97764;-62
2022/04/06 10:02:46;;;;;;;;;;;;;;;20.26;49.34;99337.41;4941118;28;98160;-62
2022/04/06 10:05:13;;;;;;;;;;;;;;;20.56;49.20;99343.13;4940761;28;98100;-62
2022/04/06 10:07:40;;;;;;;;;;;;;;;20.91;48.80;99336.75;4960949;28;98553;-62
2022/04/06 10:10:06;;;;;;;;;;;;;;;21.28;48.33;99332.31;4943260;28;98370;-62
2022/04/06 10:12:32;;;;;;;;;;;;;;;21.40;48.39;99331.34;4939590;28;115789;-62
2022/04/06 10:14:59;;;;;;;;;;;;;;;21.48;48.47;99330.31;4938470;28;121192;-62
2022/04/06 10:17:26;;;;;;;;;;;;;;;21.59;48.44;99327.72;4936738;28;127158;-62
2022/04/06 10:19:56;;;;;;;;;;;;;;;21.55;48.65;99324.16;4939637;28;125585;-62
2022/04/06 10:22:29;;;;;;;;;;;;;;;21.35;49.09;99314.44;4941007;28;97688;-62
2022/04/06 10:25:14;;;;;;;;;;;;;;;21.44;48.91;99326.72;4953869;28;125408;-62
2022/04/06 10:27:42;;;;;;;;;;;;;;;21.58;48.65;99311.66;4954931;28;98842;-62
2022/04/06 10:30:19;;;;;;;;;;;;;;;21.61;48.69;99300.72;4940237;28;98191;-62
2022/04/06 10:32:46;;;;;;;;;;;;;;;21.74;48.49;99304.84;4940542;28;97852;-62
2022/04/06 10:35:22;;;;;;;;;;;;;;;21.87;48.24;99304.63;4939813;28;113561;-62
2022/04/06 10:37:53;;;;;;;;;;;;;;;21.91;48.19;99310.97;4942998;28;98576;-62
2022/04/06 10:40:19;;;;;;;;;;;;;;;21.85;48.43;99296.78;4943768;28;98542;-62
2022/04/06 10:42:46;;;;;;;;;;;;;;;21.77;48.49;99286.84;4943904;28;98470;-62
2022/04/06 10:45:24;;;;;;;;;;;;;;;21.73;48.67;99295.06;4943710;28;99518;-62
2022/04/06 10:48:09;;;;;;;;;;;;;;;21.61;48.71;99297.19;4943419;28;104990;-62
2022/04/06 10:50:35;;;;;;;;;;;;;;;21.43;48.80;99299.69;4943449;28;98315;-62
2022/04/06 10:53:22;;;;;;;;;;;;;;;21.26;49.07;99296.28;4938981;28;113724;-62
2022/04/06 10:56:12;;;;;;;;;;;;;;;21.13;49.21;99294.06;4943421;28;98308;-62
2022/04/06 10:58:56;;;;;;;;;;;;;;;20.96;49.24;99285.19;4944029;28;98411;-61
2022/04/06 11:01:32;;;;;;;;;;;;;;;20.81;49.40;99294.31;4943324;28;103154;-62
2022/04/06 11:04:15;;;;;;;;;;;;;;;20.67;49.33;99291.31;4943683;28;97752;-62
2022/04/06 11:06:41;;;;;;;;;;;;;;;20.55;49.31;99287.59;4943249;28;98376;-62
2022/04/06 11:12:24;;;;;;;;;;;;;;;20.48;49.31;99298.38;4942082;28;97721;-62
2022/04/06 11:14:51;;;;;;;;;;;;;;;20.55;49.01;99287.59;4943508;28;97830;-62
2022/04/06 11:17:32;;;;;;;;;;;;;;;20.71;48.67;99290.25;4957169;28;108369;-62
2022/04/06 11:19:58;;;;;;;;;;;;;;;21.16;47.99;99288.66;4943454;28;98695;-62
2022/04/06 11:22:24;;;;;;;;;;;;;;;21.41;47.57;99278.13;4943402;28;98122;-62
2022/04/06 11:24:50;;;;;;;;;;;;;;;21.77;47.20;99282.19;4943014;28;113754;-62
2022/04/06 11:27:27;;;;;;;;;;;;;;;22.32;46.47;99273.47;4942443;28;128082;-63
2022/04/06 11:30:07;;;;;;;;;;;;;;;23.01;45.55;99271.06;4942903;28;98373;-61
2022/04/06 11:32:33;;;;;;;;;;;;;;;23.12;45.88;99262.16;4931064;28;98962;-62
2022/04/06 11:35:11;;;;;;;;;;;;;;;23.02;46.23;99267.16;4942848;28;97841;-62
2022/04/06 11:37:41;;;;;;;;;;;;;;;22.98;46.37;99260.84;4942642;28;98639;-61
2022/04/06 11:40:08;;;;;;;;;;;;;;;23.19;46.46;99262.22;4943022;28;99173;-62
2022/04/06 11:42:34;;;;;;;;;;;;;;;23.91;45.52;99268.97;4956735;28;111496;-61
2022/04/06 11:45:00;;;;;;;;;;;;;;;25.20;43.40;99261.84;4942903;28;98519;-62
2022/04/06 11:47:30;;;;;;;;;;;;;;;25.91;43.06;99256.22;4941445;28;127371;-62
2022/04/06 11:49:56;;;;;;;;;;;;;;;26.12;43.29;99252.56;4942896;28;99137;-62
2022/04/06 11:52:22;;;;;;;;;;;;;;;26.23;43.34;99247.00;4938896;28;97999;-62
2022/04/06 11:54:55;;;;;;;;;;;;;;;26.56;43.01;99244.88;4942844;28;98203;-62
2022/04/06 11:57:34;;;;;;;;;;;;;;;27.31;41.93;99244.31;4942967;28;98348;-62
2022/04/06 12:00:00;;;;;;;;;;;;;;;28.20;40.76;99232.28;4942213;28;99219;-61
2022/04/06 12:02:25;;;;;;;;;;;;;;;28.70;40.49;99228.03;4940966;28;123257;-61
2022/04/06 12:05:04;;;;;;;;;;;;;;;29.08;40.01;99217.53;4942022;28;118291;-63
2022/04/06 12:07:30;;;;;;;;;;;;;;;29.46;39.95;99214.47;4947723;28;98506;-61
2022/04/06 12:09:56;;;;;;;;;;;;;;;29.79;39.39;99215.44;4945285;28;98478;-61
2022/04/06 12:12:23;;;;;;;;;;;;;;;30.03;39.34;99221.72;4942296;28;118955;-61
2022/04/06 12:14:50;;;;;;;;;;;;;;;29.84;39.71;99209.41;4942103;28;97959;-62
2022/04/06 12:17:16;;;;;;;;;;;;;;;30.30;39.18;99211.22;4939930;28;124039;-61
2022/04/06 12:19:42;;;;;;;;;;;;;;;30.42;39.14;99207.00;4941719;28;128029;-61
2022/04/06 12:22:08;;;;;;;;;;;;;;;30.71;38.19;99193.19;4941975;28;98702;-61
2022/04/06 12:24:42;;;;;;;;;;;;;;;30.56;38.87;99201.09;4941554;28;97938;-61
2022/04/06 12:27:08;;;;;;;;;;;;;;;30.16;39.39;99194.88;4942259;28;98479;-62
2022/04/06 12:29:35;;;;;;;;;;;;;;;30.57;38.69;99201.84;4938991;28;126842;-61
2022/04/06 12:32:03;;;;;;;;;;;;;;;30.53;38.47;99192.81;4942391;28;97888;-61
2022/04/06 12:34:40;;;;;;;;;;;;;;;30.36;38.78;99169.03;4942974;28;97690;-61
2022/04/06 12:39:55;;;;;;;;;;;;;;;30.41;38.05;99188.72;4941522;28;97664;-61
2022/04/06 12:42:22;;;;;;;;;;;;;;;30.13;38.63;99181.78;4942842;28;97991;-62
2022/04/06 12:44:58;;;;;;;;;;;;;;;30.26;38.33;99179.16;4942025;28;98219;-62
2022/04/06 12:47:25;;;;;;;;;;;;;;;30.17;37.85;99184.53;4942244;28;98319;-62
2022/04/06 12:49:52;;;;;;;;;;;;;;;30.17;37.81;99171.41;4941884;28;99635;-61
2022/04/06 12:52:27;;;;;;;;;;;;;;;30.06;37.98;99170.84;4937591;28;97968;-62
2022/04/06 12:55:00;;;;;;;;;;;;;;;29.62;38.58;99167.41;4942131;28;98499;-61